ADDS METAR Data INFO
IDs: Format: Raw Decoded Include TAF

Data at: 0754 UTC 23 Jul 2018

KOKM 230735Z AUTO 05004KT 10SM CLR 23/20 A2994 RMK AO2 T02300201
KOKM 230715Z AUTO 07003KT 10SM CLR 24/20 A2994 RMK AO2 T02350201
KOKM 230655Z AUTO 07003KT 10SM CLR 24/20 A2994 RMK AO2 T02390200
KOKM 230635Z AUTO 07003KT 10SM CLR 24/20 A2994 RMK AO2 T02440199
KOKM 230615Z AUTO 05003KT 10SM CLR 25/20 A2993 RMK AO2 T02480197
KOKM 230555Z AUTO 05006KT 10SM CLR 25/20 A2992 RMK AO2 T02480196 10293 20238 403160195
KOKM 230535Z AUTO 05006KT 10SM CLR 25/20 A2992 RMK AO2 T02500196
KOKM 230515Z AUTO 05008KT 10SM CLR 25/20 A2992 RMK AO2 T02520196
KOKM 230455Z AUTO 04006KT 10SM CLR 24/20 A2992 RMK AO2 T02430200
KOKM 230435Z AUTO 05007KT 10SM CLR 25/20 A2992 RMK AO2 T02460198
KOKM 230415Z AUTO 05005KT 10SM CLR 24/20 A2992 RMK AO2 T02380201
KOKM 230355Z AUTO 04004KT 10SM CLR 24/20 A2992 RMK AO2 T02400202
KOKM 230335Z AUTO 04005KT 10SM CLR 24/21 A2992 RMK AO2 T02410205
KOKM 230315Z AUTO 04005KT 10SM CLR 24/21 A2991 RMK AO2 T02420205
KOKM 230255Z AUTO 04007KT 10SM CLR 25/21 A2991 RMK AO2 T02460207
KOKM 230235Z AUTO 04005KT 10SM CLR 26/21 A2990 RMK AO2 T02550210
KOKM 230215Z AUTO 05004KT 10SM CLR 25/21 A2990 RMK AO2 T02540210
KOKM 230155Z AUTO 04005KT 10SM CLR 26/21 A2991 RMK AO2 T02610208
KOKM 230135Z AUTO 04005KT 10SM CLR 27/21 A2990 RMK AO2 T02660207
KOKM 230115Z AUTO 04003KT 10SM CLR 27/21 A2991 RMK AO2 T02700206
KOKM 230055Z AUTO 05004KT 10SM CLR 27/21 A2989 RMK AO2 T02730209
KOKM 230035Z AUTO 04006KT 10SM CLR 28/21 A2989 RMK AO2 T02800211
KOKM 230015Z AUTO 04005KT 10SM CLR 29/21 A2990 RMK AO2 T02880208
KOKM 222355Z AUTO 04006KT 10SM CLR 29/21 A2990 RMK AO2 T02910211 10316 20291
KOKM 222335Z AUTO 10SM CLR 29/21 A2989 RMK AO2 T02910208
KOKM 222315Z AUTO 05004KT 10SM CLR 30/21 A2989 RMK AO2 T02990209
KOKM 222255Z AUTO 04004KT 10SM CLR 30/21 A2990 RMK AO2 T03030205
KOKM 222235Z AUTO 33004KT 10SM CLR 30/20 A2991 RMK AO2 T03010202
KOKM 222215Z AUTO 04004KT 10SM CLR 30/20 A2991 RMK AO2 T03040201
KOKM 222155Z AUTO 07003KT 10SM CLR 31/19 A2991 RMK AO2 T03100192
KOKM 222135Z AUTO 06004KT 10SM CLR 31/19 A2991 RMK AO2 T03110187
KOKM 222115Z AUTO 10004KT 10SM CLR 31/19 A2992 RMK AO2 T03130192
KOKM 222055Z AUTO 10005KT 10SM CLR 31/20 A2992 RMK AO2 T03110198
KOKM 222035Z AUTO 00000KT 10SM CLR 31/20 A2992 RMK AO2 T03110195
KOKM 222015Z AUTO 00000KT 10SM CLR 31/20 A2993 RMK AO2 T03130198
KOKM 221955Z AUTO 13005KT 10SM CLR 31/20 A2993 RMK AO2 T03110199
KOKM 221935Z AUTO 09004KT 10SM CLR 30/20 A2993 RMK AO2 T03000204
KOKM 221915Z AUTO 00000KT 10SM CLR 29/20 A2993 RMK AO2 T02930195
KOKM 221855Z AUTO 16006KT 10SM CLR 30/20 A2993 RMK AO2 T02950199
KOKM 221835Z AUTO 13003KT 10SM CLR 30/20 A2995 RMK AO2 T02970197
KOKM 221815Z AUTO 14004KT 10SM CLR 30/19 A2995 RMK AO2 T03000190
KOKM 221755Z AUTO 00000KT 10SM CLR 30/19 A2996 RMK AO2 T03020189 10312 20211
KOKM 221735Z AUTO 11004KT 10SM CLR 31/19 A2996 RMK AO2 T03070185
KOKM 221715Z AUTO 13006KT 10SM CLR 31/18 A2996 RMK AO2 T03070184
KOKM 221655Z AUTO 13005KT 10SM CLR 30/18 A2996 RMK AO2 T03030183
KOKM 221635Z AUTO 10006KT 10SM CLR 31/18 A2997 RMK AO2 T03050184
KOKM 221615Z AUTO 07006KT 10SM CLR 31/18 A2997 RMK AO2 T03090181
KOKM 221555Z AUTO 10007G14KT 10SM CLR 31/18 A2996 RMK AO2 T03090181
KOKM 221535Z AUTO 09005KT 10SM CLR 30/19 A2996 RMK AO2 T03000187
KOKM 221515Z AUTO 11003KT 10SM CLR 29/19 A2996 RMK AO2 T02930187
KOKM 221455Z AUTO 08004KT 10SM CLR 29/19 A2996 RMK AO2 T02920189
KOKM 221435Z AUTO 09007KT 10SM CLR 28/19 A2996 RMK AO2 T02780191
KOKM 221415Z AUTO 08003KT 10SM CLR 27/20 A2996 RMK AO2 T02710195
KOKM 221355Z AUTO 08007KT 10SM CLR 26/20 A2996 RMK AO2 T02600196
KOKM 221335Z AUTO 07003KT 10SM CLR 26/19 A2996 RMK AO2 T02550194
KOKM 221315Z AUTO 04005KT 10SM CLR 24/19 A2996 RMK AO2 T02390193
KOKM 221255Z AUTO 04006KT 10SM CLR 23/20 A2996 RMK AO2 T02310195
KOKM 221235Z AUTO 03004KT 10SM CLR 23/20 A2996 RMK AO2 T02280198
KOKM 221215Z AUTO 03005KT 10SM CLR 22/20 A2997 RMK AO2 T02230199
KOKM 221155Z AUTO 02005KT 10SM CLR 21/20 A2997 RMK AO2 70004 T02100204 10241 20195
KOKM 221135Z AUTO 03005KT 10SM CLR 20/20 A2996 RMK AO2 T02040204
KOKM 221115Z AUTO 00000KT 10SM CLR 20/20 A2996 RMK AO2 T02030201
KOKM 221055Z AUTO 02008KT 10SM CLR 20/20 A2996 RMK AO2 T01950195
KOKM 221035Z AUTO 00000KT 10SM CLR 21/20 A2995 RMK AO2 T02100195
KOKM 221015Z AUTO 00000KT 10SM CLR 21/19 A2996 RMK AO2 T02110193
KOKM 220955Z AUTO 03004KT 10SM CLR 20/20 A2994 RMK AO2 T02040200
KOKM 220935Z AUTO 00000KT 10SM CLR 21/20 A2994 RMK AO2 T02120198
KOKM 220915Z AUTO 19006KT 10SM CLR 22/19 A2994 RMK AO2 T02170186
KOKM 220855Z AUTO 05004KT 10SM CLR 22/19 A2994 RMK AO2 T02170185
KOKM 220835Z AUTO 00000KT 10SM CLR 23/18 A2993 RMK AO2 T02300183
KOKM 220815Z AUTO 08007KT 10SM CLR 22/19 A2992 RMK AO2 T02200186
KOKM 220755Z AUTO 04005KT 10SM CLR 22/19 A2992 RMK AO2 T02210186
KOKM 220735Z AUTO 05005KT 10SM CLR 23/19 A2992 RMK AO2 T02260186
KOKM 220715Z AUTO 04006KT 10SM CLR 23/19 A2993 RMK AO2 T02270187
KOKM 220655Z AUTO 00000KT 10SM CLR 23/19 A2993 RMK AO2 T02300189
KOKM 220635Z AUTO 04005KT 10SM CLR 23/19 A2993 RMK AO2 T02270190
KOKM 220615Z AUTO 04005KT 10SM CLR 23/19 A2993 RMK AO2 T02300188
KOKM 220555Z AUTO 05004KT 10SM CLR 24/19 A2993 RMK AO2 T02410188 10363 20238 403790238
KOKM 220535Z AUTO 04004KT 10SM CLR 24/19 A2994 RMK AO2 T02400190
KOKM 220515Z AUTO 03006KT 10SM CLR 25/19 A2994 RMK AO2 T02450191
KOKM 220455Z AUTO 03006KT 10SM CLR 25/19 A2993 RMK AO2 T02470191
KOKM 220435Z AUTO 03006KT 10SM CLR 26/19 A2993 RMK AO2 T02570186
KOKM 220415Z AUTO 03006KT 10SM CLR 26/19 A2993 RMK AO2 T02560190
KOKM 220355Z AUTO 03007KT 10SM CLR 26/19 A2993 RMK AO2 T02580194
KOKM 220335Z AUTO 04006KT 10SM CLR 26/20 A2993 RMK AO2 T02590203
KOKM 220315Z AUTO 04005KT 10SM CLR 27/21 A2993 RMK AO2 T02660206
KOKM 220255Z AUTO 05003KT 10SM CLR 26/21 A2993 RMK AO2 T02560211
KOKM 220235Z AUTO 04003KT 10SM CLR 27/21 A2992 RMK AO2 T02680209
KOKM 220215Z AUTO 04004KT 10SM CLR 28/21 A2991 RMK AO2 T02820207
KOKM 220155Z AUTO 04005KT 10SM CLR 30/21 A2991 RMK AO2 T02980205
KOKM 220135Z AUTO 04005KT 10SM CLR 31/20 A2991 RMK AO2 T03100202
KOKM 220115Z AUTO 05005KT 10SM CLR 32/21 A2991 RMK AO2 T03240205
KOKM 220055Z AUTO 06004KT 10SM CLR 33/21 A2991 RMK AO2 T03340210
KOKM 220035Z AUTO 06004KT 10SM CLR 35/20 A2991 RMK AO2 T03470201
KOKM 220015Z AUTO 06006KT 10SM CLR 36/20 A2991 RMK AO2 T03560195
KOKM 212355Z AUTO 06006KT 10SM CLR 36/18 A2991 RMK AO2 T03640183 10379 20343
KOKM 212335Z AUTO 04008KT 10SM CLR 37/18 A2991 RMK AO2 T03700180
KOKM 212315Z AUTO 04008KT 10SM CLR 37/20 A2991 RMK AO2 T03720197
KOKM 212255Z AUTO 03009KT 10SM CLR 37/20 A2991 RMK AO2 T03740203
KOKM 212235Z AUTO 06008KT 10SM CLR 38/20 A2991 RMK AO2 T03790201
KOKM 212215Z AUTO 06005KT 10SM CLR 38/20 A2991 RMK AO2 T03760198
KOKM 212155Z AUTO 07007KT 10SM CLR 38/21 A2991 RMK AO2 T03760211
KOKM 212135Z AUTO 09006KT 10SM CLR 37/21 A2991 RMK AO2 T03740207
KOKM 212115Z AUTO 05007KT 040V110 10SM CLR 37/21 A2991 RMK AO2 T03720206
KOKM 212055Z AUTO 06009KT 10SM CLR 37/21 A2991 RMK AO2 T03730208
KOKM 212035Z AUTO 09004KT 10SM CLR 37/21 A2992 RMK AO2 T03660211
KOKM 212015Z AUTO 05009KT 10SM CLR 37/22 A2992 RMK AO2 T03660217
KOKM 211955Z AUTO 07007KT 10SM CLR 37/22 A2993 RMK AO2 T03650215